sensor_id;sensor_type;location;lat;lon;timestamp;temperature;humidity
2999;DHT22;1509;51.964;7.628;2022-10-31T00:00:45;15.40;99.90
2999;DHT22;1509;51.964;7.628;2022-10-31T00:03:10;15.40;99.90
2999;DHT22;1509;51.964;7.628;2022-10-31T00:05:39;15.30;99.90
2999;DHT22;1509;51.964;7.628;2022-10-31T00:08:05;15.30;99.90
2999;DHT22;1509;51.964;7.628;2022-10-31T00:10:30;15.30;99.90
2999;DHT22;1509;51.964;7.628;2022-10-31T00:12:56;15.30;99.90
2999;DHT22;1509;51.964;7.628;2022-10-31T00:15:22;15.30;99.90
2999;DHT22;1509;51.964;7.628;2022-10-31T00:17:47;15.20;99.90
2999;DHT22;1509;51.964;7.628;2022-10-31T00:20:13;15.20;99.90
2999;DHT22;1509;51.964;7.628;2022-10-31T00:22:38;15.10;99.90
2999;DHT22;1509;51.964;7.628;2022-10-31T00:25:04;15.10;99.90
2999;DHT22;1509;51.964;7.628;2022-10-31T00:27:30;15.00;99.90
2999;DHT22;1509;51.964;7.628;2022-10-31T00:29:55;14.90;99.90
2999;DHT22;1509;51.964;7.628;2022-10-31T00:32:21;15.00;99.90
2999;DHT22;1509;51.964;7.628;2022-10-31T00:34:46;15.00;99.90
2999;DHT22;1509;51.964;7.628;2022-10-31T00:37:12;14.90;99.90
2999;DHT22;1509;51.964;7.628;2022-10-31T00:39:37;15.00;99.90
2999;DHT22;1509;51.964;7.628;2022-10-31T00:42:03;15.00;99.90
2999;DHT22;1509;51.964;7.628;2022-10-31T00:44:28;14.90;99.90
2999;DHT22;1509;51.964;7.628;2022-10-31T00:46:54;14.80;99.90
2999;DHT22;1509;51.964;7.628;2022-10-31T00:49:20;14.70;99.90
2999;DHT22;1509;51.964;7.628;2022-10-31T00:51:45;14.80;99.90
2999;DHT22;1509;51.964;7.628;2022-10-31T00:54:11;14.80;99.90
2999;DHT22;1509;51.964;7.628;2022-10-31T00:56:36;14.80;99.90
2999;DHT22;1509;51.964;7.628;2022-10-31T00:59:02;14.80;99.90
2999;DHT22;1509;51.964;7.628;2022-10-31T01:01:27;14.80;99.90
2999;DHT22;1509;51.964;7.628;2022-10-31T01:03:53;14.80;99.90
2999;DHT22;1509;51.964;7.628;2022-10-31T01:06:18;14.70;99.90
2999;DHT22;1509;51.964;7.628;2022-10-31T01:08:44;14.60;99.90
2999;DHT22;1509;51.964;7.628;2022-10-31T01:11:17;14.50;99.90
2999;DHT22;1509;51.964;7.628;2022-10-31T01:13:44;14.50;99.90
2999;DHT22;1509;51.964;7.628;2022-10-31T01:16:15;14.50;99.90
2999;DHT22;1509;51.964;7.628;2022-10-31T01:18:42;14.60;99.90
2999;DHT22;1509;51.964;7.628;2022-10-31T01:21:10;14.50;99.90
2999;DHT22;1509;51.964;7.628;2022-10-31T01:23:36;14.60;99.90
2999;DHT22;1509;51.964;7.628;2022-10-31T01:26:11;14.50;99.90
2999;DHT22;1509;51.964;7.628;2022-10-31T01:28:39;14.60;99.90
2999;DHT22;1509;51.964;7.628;2022-10-31T01:31:07;14.60;99.90
2999;DHT22;1509;51.964;7.628;2022-10-31T01:33:33;14.40;99.90
2999;DHT22;1509;51.964;7.628;2022-10-31T01:35:59;14.50;99.90
2999;DHT22;1509;51.964;7.628;2022-10-31T01:38:24;14.30;99.90
2999;DHT22;1509;51.964;7.628;2022-10-31T01:40:50;14.40;99.90
2999;DHT22;1509;51.964;7.628;2022-10-31T01:43:16;14.30;99.90
2999;DHT22;1509;51.964;7.628;2022-10-31T01:45:45;14.30;99.90
2999;DHT22;1509;51.964;7.628;2022-10-31T01:48:13;14.20;99.90
2999;DHT22;1509;51.964;7.628;2022-10-31T01:50:40;14.20;99.90
2999;DHT22;1509;51.964;7.628;2022-10-31T01:53:08;14.20;99.90
2999;DHT22;1509;51.964;7.628;2022-10-31T01:55:39;14.20;99.90
2999;DHT22;1509;51.964;7.628;2022-10-31T01:58:13;14.30;99.90
2999;DHT22;1509;51.964;7.628;2022-10-31T02:00:40;14.40;99.90
2999;DHT22;1509;51.964;7.628;2022-10-31T02:03:08;14.40;99.90
2999;DHT22;1509;51.964;7.628;2022-10-31T02:05:34;14.40;99.90
2999;DHT22;1509;51.964;7.628;2022-10-31T02:08:16;14.40;99.90
2999;DHT22;1509;51.964;7.628;2022-10-31T02:10:44;14.40;99.90
2999;DHT22;1509;51.964;7.628;2022-10-31T02:13:10;14.40;99.90
2999;DHT22;1509;51.964;7.628;2022-10-31T02:15:39;14.40;99.90
2999;DHT22;1509;51.964;7.628;2022-10-31T02:18:05;14.20;99.90
2999;DHT22;1509;51.964;7.628;2022-10-31T02:34:22;14.10;99.90
2999;DHT22;1509;51.964;7.628;2022-10-31T02:36:59;14.10;99.90
2999;DHT22;1509;51.964;7.628;2022-10-31T02:39:44;14.00;99.90
2999;DHT22;1509;51.964;7.628;2022-10-31T02:42:40;13.90;99.90
2999;DHT22;1509;51.964;7.628;2022-10-31T02:45:22;13.90;99.90
2999;DHT22;1509;51.964;7.628;2022-10-31T02:47:53;13.90;99.90
2999;DHT22;1509;51.964;7.628;2022-10-31T02:50:27;13.90;99.90
2999;DHT22;1509;51.964;7.628;2022-10-31T02:52:53;13.90;99.90
2999;DHT22;1509;51.964;7.628;2022-10-31T02:57:48;13.80;99.90
2999;DHT22;1509;51.964;7.628;2022-10-31T03:00:15;13.90;99.90
2999;DHT22;1509;51.964;7.628;2022-10-31T03:10:54;13.80;99.90
2999;DHT22;1509;51.964;7.628;2022-10-31T03:13:23;13.90;99.90
2999;DHT22;1509;51.964;7.628;2022-10-31T03:16:00;13.80;99.90
2999;DHT22;1509;51.964;7.628;2022-10-31T03:18:31;13.90;99.90
2999;DHT22;1509;51.964;7.628;2022-10-31T03:21:03;13.90;99.90
2999;DHT22;1509;51.964;7.628;2022-10-31T03:23:30;13.90;99.90
2999;DHT22;1509;51.964;7.628;2022-10-31T03:25:58;13.80;99.90
2999;DHT22;1509;51.964;7.628;2022-10-31T03:28:33;13.80;99.90
2999;DHT22;1509;51.964;7.628;2022-10-31T03:31:03;13.80;99.90
2999;DHT22;1509;51.964;7.628;2022-10-31T03:33:32;13.80;99.90
2999;DHT22;1509;51.964;7.628;2022-10-31T03:36:02;13.80;99.90
2999;DHT22;1509;51.964;7.628;2022-10-31T03:38:29;13.70;99.90
2999;DHT22;1509;51.964;7.628;2022-10-31T03:40:56;13.70;99.90
2999;DHT22;1509;51.964;7.628;2022-10-31T03:43:27;13.60;99.90
2999;DHT22;1509;51.964;7.628;2022-10-31T03:45:53;13.60;99.90
2999;DHT22;1509;51.964;7.628;2022-10-31T03:48:20;13.60;99.90
2999;DHT22;1509;51.964;7.628;2022-10-31T03:53:56;13.60;99.90
2999;DHT22;1509;51.964;7.628;2022-10-31T03:56:47;13.60;99.90
2999;DHT22;1509;51.964;7.628;2022-10-31T03:59:24;13.60;99.90
2999;DHT22;1509;51.964;7.628;2022-10-31T04:01:53;13.60;99.90
2999;DHT22;1509;51.964;7.628;2022-10-31T04:04:20;13.60;99.90
2999;DHT22;1509;51.964;7.628;2022-10-31T04:06:48;13.50;99.90
2999;DHT22;1509;51.964;7.628;2022-10-31T04:09:14;13.50;99.90
2999;DHT22;1509;51.964;7.628;2022-10-31T04:11:48;13.60;99.90
2999;DHT22;1509;51.964;7.628;2022-10-31T04:14:14;13.60;99.90
2999;DHT22;1509;51.964;7.628;2022-10-31T04:16:42;13.60;99.90
2999;DHT22;1509;51.964;7.628;2022-10-31T04:19:12;13.50;99.90
2999;DHT22;1509;51.964;7.628;2022-10-31T04:21:37;13.50;99.90
2999;DHT22;1509;51.964;7.628;2022-10-31T04:24:03;13.50;99.90
2999;DHT22;1509;51.964;7.628;2022-10-31T04:26:29;13.50;99.90
2999;DHT22;1509;51.964;7.628;2022-10-31T04:28:55;13.40;99.90
2999;DHT22;1509;51.964;7.628;2022-10-31T04:31:20;13.50;99.90
2999;DHT22;1509;51.964;7.628;2022-10-31T04:33:46;13.50;99.90
2999;DHT22;1509;51.964;7.628;2022-10-31T04:36:11;13.50;99.90
2999;DHT22;1509;51.964;7.628;2022-10-31T04:38:37;13.40;99.90
2999;DHT22;1509;51.964;7.628;2022-10-31T04:41:02;13.40;99.90
2999;DHT22;1509;51.964;7.628;2022-10-31T04:43:28;13.40;99.90
2999;DHT22;1509;51.964;7.628;2022-10-31T04:45:54;13.30;99.90
2999;DHT22;1509;51.964;7.628;2022-10-31T04:48:19;13.30;99.90
2999;DHT22;1509;51.964;7.628;2022-10-31T04:50:45;13.30;99.90
2999;DHT22;1509;51.964;7.628;2022-10-31T04:53:10;13.20;99.90
2999;DHT22;1509;51.964;7.628;2022-10-31T04:55:36;13.20;99.90
2999;DHT22;1509;51.964;7.628;2022-10-31T04:58:02;13.20;99.90
2999;DHT22;1509;51.964;7.628;2022-10-31T05:00:28;13.10;99.90
2999;DHT22;1509;51.964;7.628;2022-10-31T05:02:56;13.10;99.90
2999;DHT22;1509;51.964;7.628;2022-10-31T05:05:28;13.10;99.90
2999;DHT22;1509;51.964;7.628;2022-10-31T05:07:55;13.10;99.90
2999;DHT22;1509;51.964;7.628;2022-10-31T05:10:26;13.10;99.90
2999;DHT22;1509;51.964;7.628;2022-10-31T05:12:53;13.00;99.90
2999;DHT22;1509;51.964;7.628;2022-10-31T05:15:21;12.90;99.90
2999;DHT22;1509;51.964;7.628;2022-10-31T05:17:47;12.90;99.90
2999;DHT22;1509;51.964;7.628;2022-10-31T05:20:15;12.90;99.90
2999;DHT22;1509;51.964;7.628;2022-10-31T05:22:52;12.90;99.90
2999;DHT22;1509;51.964;7.628;2022-10-31T05:25:19;12.90;99.90
2999;DHT22;1509;51.964;7.628;2022-10-31T05:27:46;13.00;99.90
2999;DHT22;1509;51.964;7.628;2022-10-31T05:30:14;12.90;99.90
2999;DHT22;1509;51.964;7.628;2022-10-31T05:32:45;13.00;99.90
2999;DHT22;1509;51.964;7.628;2022-10-31T05:35:16;13.00;99.90
2999;DHT22;1509;51.964;7.628;2022-10-31T05:37:42;12.90;99.90
2999;DHT22;1509;51.964;7.628;2022-10-31T05:40:09;13.00;99.90
2999;DHT22;1509;51.964;7.628;2022-10-31T05:42:35;12.90;99.90
2999;DHT22;1509;51.964;7.628;2022-10-31T05:45:03;12.90;99.90
2999;DHT22;1509;51.964;7.628;2022-10-31T05:47:29;12.90;99.90
2999;DHT22;1509;51.964;7.628;2022-10-31T05:49:54;12.90;99.90
2999;DHT22;1509;51.964;7.628;2022-10-31T05:52:20;12.90;99.90
2999;DHT22;1509;51.964;7.628;2022-10-31T05:54:45;12.90;99.90
2999;DHT22;1509;51.964;7.628;2022-10-31T05:57:11;12.90;99.90
2999;DHT22;1509;51.964;7.628;2022-10-31T05:59:36;12.90;99.90
2999;DHT22;1509;51.964;7.628;2022-10-31T06:02:02;12.90;99.90
2999;DHT22;1509;51.964;7.628;2022-10-31T06:04:29;12.90;99.90
2999;DHT22;1509;51.964;7.628;2022-10-31T06:06:56;12.90;99.90
2999;DHT22;1509;51.964;7.628;2022-10-31T06:09:22;12.80;99.90
2999;DHT22;1509;51.964;7.628;2022-10-31T06:11:47;12.80;99.90
2999;DHT22;1509;51.964;7.628;2022-10-31T06:14:13;12.80;99.90
2999;DHT22;1509;51.964;7.628;2022-10-31T06:16:38;12.80;99.90
2999;DHT22;1509;51.964;7.628;2022-10-31T06:19:04;12.80;99.90
2999;DHT22;1509;51.964;7.628;2022-10-31T06:21:30;12.80;99.90
2999;DHT22;1509;51.964;7.628;2022-10-31T06:23:55;12.90;99.90
2999;DHT22;1509;51.964;7.628;2022-10-31T06:26:21;12.80;99.90
2999;DHT22;1509;51.964;7.628;2022-10-31T06:28:46;12.90;99.90
2999;DHT22;1509;51.964;7.628;2022-10-31T06:31:12;12.90;99.90
2999;DHT22;1509;51.964;7.628;2022-10-31T06:33:38;12.90;99.90
2999;DHT22;1509;51.964;7.628;2022-10-31T06:36:05;12.90;99.90
2999;DHT22;1509;51.964;7.628;2022-10-31T06:38:31;12.80;99.90
2999;DHT22;1509;51.964;7.628;2022-10-31T06:40:57;12.80;99.90
2999;DHT22;1509;51.964;7.628;2022-10-31T06:43:23;12.80;99.90
2999;DHT22;1509;51.964;7.628;2022-10-31T06:45:48;12.80;99.90
2999;DHT22;1509;51.964;7.628;2022-10-31T06:48:14;12.80;99.90
2999;DHT22;1509;51.964;7.628;2022-10-31T06:50:39;12.80;99.90
2999;DHT22;1509;51.964;7.628;2022-10-31T06:53:05;13.00;99.90
2999;DHT22;1509;51.964;7.628;2022-10-31T06:55:30;12.90;99.90
2999;DHT22;1509;51.964;7.628;2022-10-31T06:58:01;13.00;99.90
2999;DHT22;1509;51.964;7.628;2022-10-31T07:00:30;13.00;99.90
2999;DHT22;1509;51.964;7.628;2022-10-31T07:03:02;13.00;99.90
2999;DHT22;1509;51.964;7.628;2022-10-31T07:05:29;13.10;99.90
2999;DHT22;1509;51.964;7.628;2022-10-31T07:07:56;13.20;99.90
2999;DHT22;1509;51.964;7.628;2022-10-31T07:10:22;13.20;99.90
2999;DHT22;1509;51.964;7.628;2022-10-31T07:12:53;13.30;99.90
2999;DHT22;1509;51.964;7.628;2022-10-31T07:15:19;13.40;99.90
2999;DHT22;1509;51.964;7.628;2022-10-31T07:17:44;13.50;99.90
2999;DHT22;1509;51.964;7.628;2022-10-31T07:20:10;13.50;99.90
2999;DHT22;1509;51.964;7.628;2022-10-31T07:22:36;13.60;99.90
2999;DHT22;1509;51.964;7.628;2022-10-31T07:25:02;13.60;99.90
2999;DHT22;1509;51.964;7.628;2022-10-31T07:27:27;13.50;99.90
2999;DHT22;1509;51.964;7.628;2022-10-31T07:29:53;13.50;99.90
2999;DHT22;1509;51.964;7.628;2022-10-31T07:32:19;13.60;99.90
2999;DHT22;1509;51.964;7.628;2022-10-31T07:34:44;13.60;99.90
2999;DHT22;1509;51.964;7.628;2022-10-31T07:37:10;13.60;99.90
2999;DHT22;1509;51.964;7.628;2022-10-31T07:39:35;13.70;99.90
2999;DHT22;1509;51.964;7.628;2022-10-31T07:42:01;13.80;99.90
2999;DHT22;1509;51.964;7.628;2022-10-31T07:44:26;13.90;99.90
2999;DHT22;1509;51.964;7.628;2022-10-31T07:46:55;14.10;99.90
2999;DHT22;1509;51.964;7.628;2022-10-31T07:49:20;14.30;99.90
2999;DHT22;1509;51.964;7.628;2022-10-31T07:51:46;14.50;99.90
2999;DHT22;1509;51.964;7.628;2022-10-31T07:54:12;14.80;99.90
2999;DHT22;1509;51.964;7.628;2022-10-31T07:56:37;15.30;99.90
2999;DHT22;1509;51.964;7.628;2022-10-31T07:59:03;16.00;99.90
2999;DHT22;1509;51.964;7.628;2022-10-31T08:01:31;16.30;99.90
2999;DHT22;1509;51.964;7.628;2022-10-31T08:03:57;16.70;99.90
2999;DHT22;1509;51.964;7.628;2022-10-31T08:06:22;17.10;99.90
2999;DHT22;1509;51.964;7.628;2022-10-31T08:08:48;17.50;99.90
2999;DHT22;1509;51.964;7.628;2022-10-31T08:11:13;17.80;99.90
2999;DHT22;1509;51.964;7.628;2022-10-31T08:13:39;17.90;99.90
2999;DHT22;1509;51.964;7.628;2022-10-31T08:16:05;18.20;99.90
2999;DHT22;1509;51.964;7.628;2022-10-31T08:18:32;18.50;99.90
2999;DHT22;1509;51.964;7.628;2022-10-31T08:20:58;18.70;99.90
2999;DHT22;1509;51.964;7.628;2022-10-31T08:23:23;18.90;99.90
2999;DHT22;1509;51.964;7.628;2022-10-31T08:25:49;19.20;99.90
2999;DHT22;1509;51.964;7.628;2022-10-31T08:28:17;19.20;99.90
2999;DHT22;1509;51.964;7.628;2022-10-31T08:30:43;19.40;99.90
2999;DHT22;1509;51.964;7.628;2022-10-31T08:33:11;19.20;99.90
2999;DHT22;1509;51.964;7.628;2022-10-31T08:35:37;18.90;99.90
2999;DHT22;1509;51.964;7.628;2022-10-31T08:38:03;18.50;99.90
2999;DHT22;1509;51.964;7.628;2022-10-31T08:40:31;18.20;99.90
2999;DHT22;1509;51.964;7.628;2022-10-31T08:43:03;17.90;99.90
2999;DHT22;1509;51.964;7.628;2022-10-31T08:45:30;17.90;99.90
2999;DHT22;1509;51.964;7.628;2022-10-31T08:47:58;18.20;99.90
2999;DHT22;1509;51.964;7.628;2022-10-31T08:50:24;18.60;99.90
2999;DHT22;1509;51.964;7.628;2022-10-31T08:52:49;18.90;99.90
2999;DHT22;1509;51.964;7.628;2022-10-31T08:55:15;19.10;99.90
2999;DHT22;1509;51.964;7.628;2022-10-31T08:57:41;19.70;99.90
2999;DHT22;1509;51.964;7.628;2022-10-31T09:00:07;20.20;99.90
2999;DHT22;1509;51.964;7.628;2022-10-31T09:02:32;20.30;99.90
2999;DHT22;1509;51.964;7.628;2022-10-31T09:04:58;20.50;99.90
2999;DHT22;1509;51.964;7.628;2022-10-31T09:07:24;20.60;99.90
2999;DHT22;1509;51.964;7.628;2022-10-31T09:09:49;20.70;99.90
2999;DHT22;1509;51.964;7.628;2022-10-31T09:12:15;20.70;99.90
2999;DHT22;1509;51.964;7.628;2022-10-31T09:14:41;20.60;99.90
2999;DHT22;1509;51.964;7.628;2022-10-31T09:17:06;20.80;99.90
2999;DHT22;1509;51.964;7.628;2022-10-31T09:19:35;20.90;99.90
2999;DHT22;1509;51.964;7.628;2022-10-31T09:22:01;20.50;99.90
2999;DHT22;1509;51.964;7.628;2022-10-31T09:24:27;20.00;99.90
2999;DHT22;1509;51.964;7.628;2022-10-31T09:26:52;19.50;99.90
2999;DHT22;1509;51.964;7.628;2022-10-31T09:29:18;19.60;99.90
2999;DHT22;1509;51.964;7.628;2022-10-31T09:31:43;20.00;99.90
2999;DHT22;1509;51.964;7.628;2022-10-31T09:34:09;20.60;99.90
2999;DHT22;1509;51.964;7.628;2022-10-31T09:36:36;20.80;99.90
2999;DHT22;1509;51.964;7.628;2022-10-31T09:39:01;20.90;99.90
2999;DHT22;1509;51.964;7.628;2022-10-31T09:41:36;21.20;99.90
2999;DHT22;1509;51.964;7.628;2022-10-31T09:44:21;21.30;99.90
2999;DHT22;1509;51.964;7.628;2022-10-31T09:47:08;21.00;99.90
2999;DHT22;1509;51.964;7.628;2022-10-31T09:49:50;21.30;99.90
2999;DHT22;1509;51.964;7.628;2022-10-31T09:55:06;21.70;99.90
2999;DHT22;1509;51.964;7.628;2022-10-31T09:57:38;22.10;99.90
2999;DHT22;1509;51.964;7.628;2022-10-31T10:02:40;21.20;99.90
2999;DHT22;1509;51.964;7.628;2022-10-31T10:05:13;20.30;99.90
2999;DHT22;1509;51.964;7.628;2022-10-31T10:08:03;20.00;99.90
2999;DHT22;1509;51.964;7.628;2022-10-31T10:10:55;19.60;99.90
2999;DHT22;1509;51.964;7.628;2022-10-31T10:16:32;19.30;99.90
2999;DHT22;1509;51.964;7.628;2022-10-31T10:27:45;19.30;99.90
2999;DHT22;1509;51.964;7.628;2022-10-31T10:30:21;19.50;99.90
2999;DHT22;1509;51.964;7.628;2022-10-31T10:33:28;19.70;99.90
2999;DHT22;1509;51.964;7.628;2022-10-31T10:35:47;20.00;99.90
2999;DHT22;1509;51.964;7.628;2022-10-31T10:40:51;20.60;99.90
2999;DHT22;1509;51.964;7.628;2022-10-31T10:43:37;20.60;99.90
2999;DHT22;1509;51.964;7.628;2022-10-31T10:49:35;20.80;99.90
2999;DHT22;1509;51.964;7.628;2022-10-31T10:57:58;20.60;99.90
2999;DHT22;1509;51.964;7.628;2022-10-31T11:02:58;20.60;99.90
2999;DHT22;1509;51.964;7.628;2022-10-31T11:05:28;20.40;99.90
2999;DHT22;1509;51.964;7.628;2022-10-31T11:07:55;20.30;99.90
2999;DHT22;1509;51.964;7.628;2022-10-31T11:10:21;20.20;99.90
2999;DHT22;1509;51.964;7.628;2022-10-31T11:13:20;20.00;99.90
2999;DHT22;1509;51.964;7.628;2022-10-31T11:18:32;20.30;99.90
2999;DHT22;1509;51.964;7.628;2022-10-31T11:21:00;20.60;99.90
2999;DHT22;1509;51.964;7.628;2022-10-31T11:23:28;21.20;99.90
2999;DHT22;1509;51.964;7.628;2022-10-31T11:26:03;21.80;99.90
2999;DHT22;1509;51.964;7.628;2022-10-31T11:28:30;22.10;99.90
2999;DHT22;1509;51.964;7.628;2022-10-31T11:31:10;22.50;99.90
2999;DHT22;1509;51.964;7.628;2022-10-31T11:33:46;22.50;99.90
2999;DHT22;1509;51.964;7.628;2022-10-31T11:36:23;22.20;99.90
2999;DHT22;1509;51.964;7.628;2022-10-31T11:38:50;22.50;99.90
2999;DHT22;1509;51.964;7.628;2022-10-31T11:43:53;23.40;99.90
2999;DHT22;1509;51.964;7.628;2022-10-31T11:46:33;23.60;99.90
2999;DHT22;1509;51.964;7.628;2022-10-31T11:49:03;24.00;99.90
2999;DHT22;1509;51.964;7.628;2022-10-31T11:51:32;24.00;99.90
2999;DHT22;1509;51.964;7.628;2022-10-31T11:54:03;24.30;99.90
2999;DHT22;1509;51.964;7.628;2022-10-31T11:56:42;24.30;99.90
2999;DHT22;1509;51.964;7.628;2022-10-31T11:59:22;24.10;99.90
2999;DHT22;1509;51.964;7.628;2022-10-31T12:01:50;23.60;99.90
2999;DHT22;1509;51.964;7.628;2022-10-31T12:04:16;23.00;99.90
2999;DHT22;1509;51.964;7.628;2022-10-31T12:06:45;22.40;99.90
2999;DHT22;1509;51.964;7.628;2022-10-31T12:09:21;21.90;99.90
2999;DHT22;1509;51.964;7.628;2022-10-31T12:14:59;20.80;99.90
2999;DHT22;1509;51.964;7.628;2022-10-31T12:23:49;20.00;99.90
2999;DHT22;1509;51.964;7.628;2022-10-31T12:32:28;19.80;99.90
2999;DHT22;1509;51.964;7.628;2022-10-31T12:35:40;19.70;99.90
2999;DHT22;1509;51.964;7.628;2022-10-31T12:41:04;19.60;99.90
2999;DHT22;1509;51.964;7.628;2022-10-31T12:53:03;19.50;99.90
2999;DHT22;1509;51.964;7.628;2022-10-31T12:58:33;19.60;99.90
2999;DHT22;1509;51.964;7.628;2022-10-31T13:01:12;19.60;99.90
2999;DHT22;1509;51.964;7.628;2022-10-31T13:03:55;19.60;99.90
2999;DHT22;1509;51.964;7.628;2022-10-31T13:06:29;19.60;99.90
2999;DHT22;1509;51.964;7.628;2022-10-31T13:09:01;19.60;99.90
2999;DHT22;1509;51.964;7.628;2022-10-31T13:11:32;19.50;99.90
2999;DHT22;1509;51.964;7.628;2022-10-31T13:14:48;19.60;99.90
2999;DHT22;1509;51.964;7.628;2022-10-31T13:17:39;19.50;99.90
2999;DHT22;1509;51.964;7.628;2022-10-31T13:20:28;19.40;99.90
2999;DHT22;1509;51.964;7.628;2022-10-31T13:23:31;19.40;99.90
2999;DHT22;1509;51.964;7.628;2022-10-31T13:26:03;19.60;99.90
2999;DHT22;1509;51.964;7.628;2022-10-31T13:29:00;19.60;99.90
2999;DHT22;1509;51.964;7.628;2022-10-31T13:31:28;19.70;99.90
2999;DHT22;1509;51.964;7.628;2022-10-31T13:34:27;19.80;99.90
2999;DHT22;1509;51.964;7.628;2022-10-31T13:37:18;19.70;99.90
2999;DHT22;1509;51.964;7.628;2022-10-31T13:45:16;19.30;99.90
2999;DHT22;1509;51.964;7.628;2022-10-31T13:48:18;19.30;99.90
2999;DHT22;1509;51.964;7.628;2022-10-31T13:50:56;19.30;99.90
2999;DHT22;1509;51.964;7.628;2022-10-31T13:53:34;19.20;99.90
2999;DHT22;1509;51.964;7.628;2022-10-31T14:01:27;19.30;99.90
2999;DHT22;1509;51.964;7.628;2022-10-31T14:04:03;19.30;99.90
2999;DHT22;1509;51.964;7.628;2022-10-31T14:06:53;19.30;99.90
2999;DHT22;1509;51.964;7.628;2022-10-31T14:09:35;19.30;99.90
2999;DHT22;1509;51.964;7.628;2022-10-31T14:12:07;19.10;99.90
2999;DHT22;1509;51.964;7.628;2022-10-31T14:14:44;19.10;99.90
2999;DHT22;1509;51.964;7.628;2022-10-31T14:17:19;19.00;99.90
2999;DHT22;1509;51.964;7.628;2022-10-31T14:20:42;18.90;99.90
2999;DHT22;1509;51.964;7.628;2022-10-31T14:22:46;19.00;99.90
2999;DHT22;1509;51.964;7.628;2022-10-31T14:25:30;18.90;99.90
2999;DHT22;1509;51.964;7.628;2022-10-31T14:27:57;18.90;99.90
2999;DHT22;1509;51.964;7.628;2022-10-31T14:30:25;19.00;99.90
2999;DHT22;1509;51.964;7.628;2022-10-31T14:33:04;19.00;99.90
2999;DHT22;1509;51.964;7.628;2022-10-31T14:39:05;19.10;99.90
2999;DHT22;1509;51.964;7.628;2022-10-31T14:52:56;18.80;99.90
2999;DHT22;1509;51.964;7.628;2022-10-31T14:55:23;18.80;99.90
2999;DHT22;1509;51.964;7.628;2022-10-31T14:57:59;18.90;99.90
2999;DHT22;1509;51.964;7.628;2022-10-31T15:00:29;18.80;99.90
2999;DHT22;1509;51.964;7.628;2022-10-31T15:03:04;18.80;99.90
2999;DHT22;1509;51.964;7.628;2022-10-31T15:05:33;18.70;99.90
2999;DHT22;1509;51.964;7.628;2022-10-31T15:08:00;18.70;99.90
2999;DHT22;1509;51.964;7.628;2022-10-31T15:10:32;18.80;99.90
2999;DHT22;1509;51.964;7.628;2022-10-31T15:15:42;18.80;99.90
2999;DHT22;1509;51.964;7.628;2022-10-31T15:18:19;18.70;99.90
2999;DHT22;1509;51.964;7.628;2022-10-31T15:20:46;18.70;99.90
2999;DHT22;1509;51.964;7.628;2022-10-31T15:23:19;18.60;99.90
2999;DHT22;1509;51.964;7.628;2022-10-31T15:25:49;18.50;99.90
2999;DHT22;1509;51.964;7.628;2022-10-31T15:28:21;18.50;99.90
2999;DHT22;1509;51.964;7.628;2022-10-31T15:30:58;18.50;99.90
2999;DHT22;1509;51.964;7.628;2022-10-31T15:33:26;18.50;99.90
2999;DHT22;1509;51.964;7.628;2022-10-31T15:36:00;18.40;99.90
2999;DHT22;1509;51.964;7.628;2022-10-31T15:38:27;18.40;99.90
2999;DHT22;1509;51.964;7.628;2022-10-31T15:41:21;18.30;99.90
2999;DHT22;1509;51.964;7.628;2022-10-31T15:43:49;18.30;99.90
2999;DHT22;1509;51.964;7.628;2022-10-31T15:46:18;18.20;99.90
2999;DHT22;1509;51.964;7.628;2022-10-31T15:48:45;18.20;99.90
2999;DHT22;1509;51.964;7.628;2022-10-31T15:51:11;18.20;99.90
2999;DHT22;1509;51.964;7.628;2022-10-31T15:53:49;18.00;99.90
2999;DHT22;1509;51.964;7.628;2022-10-31T15:56:25;17.90;99.90
2999;DHT22;1509;51.964;7.628;2022-10-31T15:58:53;18.00;99.90
2999;DHT22;1509;51.964;7.628;2022-10-31T16:01:22;17.90;99.90
2999;DHT22;1509;51.964;7.628;2022-10-31T16:06:34;17.80;99.90
2999;DHT22;1509;51.964;7.628;2022-10-31T16:09:00;17.80;99.90
2999;DHT22;1509;51.964;7.628;2022-10-31T16:14:06;17.70;99.90
2999;DHT22;1509;51.964;7.628;2022-10-31T16:16:40;17.70;99.90
2999;DHT22;1509;51.964;7.628;2022-10-31T16:22:08;17.60;99.90
2999;DHT22;1509;51.964;7.628;2022-10-31T16:27:18;17.60;99.90
2999;DHT22;1509;51.964;7.628;2022-10-31T16:29:46;17.60;99.90
2999;DHT22;1509;51.964;7.628;2022-10-31T16:32:34;17.50;99.90
2999;DHT22;1509;51.964;7.628;2022-10-31T16:37:38;17.50;99.90
2999;DHT22;1509;51.964;7.628;2022-10-31T16:40:04;17.50;99.90
2999;DHT22;1509;51.964;7.628;2022-10-31T16:42:29;17.40;99.90
2999;DHT22;1509;51.964;7.628;2022-10-31T16:44:55;17.40;99.90
2999;DHT22;1509;51.964;7.628;2022-10-31T16:47:21;17.40;99.90
2999;DHT22;1509;51.964;7.628;2022-10-31T16:49:48;17.40;99.90
2999;DHT22;1509;51.964;7.628;2022-10-31T16:52:18;17.30;99.90
2999;DHT22;1509;51.964;7.628;2022-10-31T16:54:44;17.30;99.90
2999;DHT22;1509;51.964;7.628;2022-10-31T16:57:15;17.30;99.90
2999;DHT22;1509;51.964;7.628;2022-10-31T16:59:42;17.30;99.90
2999;DHT22;1509;51.964;7.628;2022-10-31T17:02:18;17.10;99.90
2999;DHT22;1509;51.964;7.628;2022-10-31T17:04:43;17.20;99.90
2999;DHT22;1509;51.964;7.628;2022-10-31T17:07:09;17.20;99.90
2999;DHT22;1509;51.964;7.628;2022-10-31T17:09:35;17.10;99.90
2999;DHT22;1509;51.964;7.628;2022-10-31T17:12:00;17.00;99.90
2999;DHT22;1509;51.964;7.628;2022-10-31T17:14:26;17.00;99.90
2999;DHT22;1509;51.964;7.628;2022-10-31T17:16:52;17.00;99.90
2999;DHT22;1509;51.964;7.628;2022-10-31T17:19:18;17.00;99.90
2999;DHT22;1509;51.964;7.628;2022-10-31T17:21:43;16.90;99.90
2999;DHT22;1509;51.964;7.628;2022-10-31T17:24:14;16.90;99.90
2999;DHT22;1509;51.964;7.628;2022-10-31T17:26:48;16.90;99.90
2999;DHT22;1509;51.964;7.628;2022-10-31T17:29:14;16.80;99.90
2999;DHT22;1509;51.964;7.628;2022-10-31T17:31:39;16.80;99.90
2999;DHT22;1509;51.964;7.628;2022-10-31T17:34:09;16.80;99.90
2999;DHT22;1509;51.964;7.628;2022-10-31T17:36:35;16.80;99.90
2999;DHT22;1509;51.964;7.628;2022-10-31T17:39:01;16.80;99.90
2999;DHT22;1509;51.964;7.628;2022-10-31T17:41:27;16.80;99.90
2999;DHT22;1509;51.964;7.628;2022-10-31T17:43:57;16.70;99.90
2999;DHT22;1509;51.964;7.628;2022-10-31T17:46:23;16.70;99.90
2999;DHT22;1509;51.964;7.628;2022-10-31T17:48:49;16.80;99.90
2999;DHT22;1509;51.964;7.628;2022-10-31T17:51:14;16.70;99.90
2999;DHT22;1509;51.964;7.628;2022-10-31T17:53:40;16.70;99.90
2999;DHT22;1509;51.964;7.628;2022-10-31T17:56:08;16.70;99.90
2999;DHT22;1509;51.964;7.628;2022-10-31T17:58:37;16.70;99.90
2999;DHT22;1509;51.964;7.628;2022-10-31T18:01:07;16.60;99.90
2999;DHT22;1509;51.964;7.628;2022-10-31T18:03:34;16.60;99.90
2999;DHT22;1509;51.964;7.628;2022-10-31T18:06:03;16.60;99.90
2999;DHT22;1509;51.964;7.628;2022-10-31T18:08:34;16.50;99.90
2999;DHT22;1509;51.964;7.628;2022-10-31T18:11:05;16.50;99.90
2999;DHT22;1509;51.964;7.628;2022-10-31T18:13:30;16.50;99.90
2999;DHT22;1509;51.964;7.628;2022-10-31T18:15:56;16.50;99.90
2999;DHT22;1509;51.964;7.628;2022-10-31T18:18:22;16.40;99.90
2999;DHT22;1509;51.964;7.628;2022-10-31T18:20:47;16.50;99.90
2999;DHT22;1509;51.964;7.628;2022-10-31T18:23:13;16.50;99.90
2999;DHT22;1509;51.964;7.628;2022-10-31T18:25:39;16.40;99.90
2999;DHT22;1509;51.964;7.628;2022-10-31T18:28:05;16.40;99.90
2999;DHT22;1509;51.964;7.628;2022-10-31T18:30:32;16.30;99.90
2999;DHT22;1509;51.964;7.628;2022-10-31T18:32:57;16.30;99.90
2999;DHT22;1509;51.964;7.628;2022-10-31T18:35:23;16.20;99.90